Decoded Metar for SAZM (MAR DEL PLATA in ARGENTINA) (IATA:MDQ) | Meteo·Mobile Aviation Weather
aviador You're here:

SAZM Decoded Metar

MAR DEL PLATA in ARGENTINA
Report Time2018-12-10 11:00:00
UTC Time2018-12-10 11:27:26
Flight Rules vfr VFR
Wind330° at 13 kt
W.Decomp.*RWY 31: 11.7 kt HW 5.7 kt RCW
W.Rank330° ranks 18
Current wind is above 330° avg. (9.2)
Visibility9999 m
Phenomena:N/A
Clouds:N/A
Expected CloudBase > 2,000 ft AGL from Temp-Dew spread
CeilingNone
Temp19°C (ISA +4)
Dew Point14°C (73% RH)
AAT15.6°C
QNH1011 hPa
Density Alt837 ft
Elevation69 ft
Report Wrong Elevation
Raw Report
SAZM 101100Z 33013KT CAVOK 19/14 Q1011=

Extra information for SAZM:More info

Metar Taf Metar & Taf Last 4 Metars F.Rules Stats Wind Profile Meteogram Temp Stats Airport Information Weather charts Add Link Nearby VenuesMetar ALERT Operation Metar Decoded Social comments